TimeCST,TemperatureF,Dew PointF,Humidity,Sea Level PressureIn,VisibilityMPH,Wind Direction,Wind SpeedMPH,Gust SpeedMPH,PrecipitationIn,Events,Conditions,WindDirDegrees,DateUTC
12:57 AM,35.1,23.0,61,30.13,10.0,SE,5.8,-,N/A,,Clear,140,2013-01-08 06:57:00
2:57 AM,34.0,24.1,67,30.15,10.0,SE,4.6,-,N/A,,Clear,130,2013-01-08 08:57:00
3:57 AM,33.1,23.0,66,30.14,10.0,SE,5.8,-,N/A,,Clear,140,2013-01-08 09:57:00
5:57 AM,30.0,25.0,82,30.14,10.0,ESE,5.8,-,N/A,,Clear,120,2013-01-08 11:57:00
7:57 AM,30.9,25.0,79,30.17,10.0,ESE,5.8,-,N/A,,Scattered Clouds,120,2013-01-08 13:57:00
8:57 AM,37.0,26.1,65,30.17,10.0,SE,8.1,-,N/A,,Overcast,140,2013-01-08 14:57:00
9:57 AM,42.1,28.0,58,30.17,10.0,SE,6.9,-,N/A,,Mostly Cloudy,140,2013-01-08 15:57:00
10:57 AM,46.9,30.9,54,30.15,10.0,SSE,8.1,-,N/A,,Mostly Cloudy,160,2013-01-08 16:57:00
11:57 AM,50.0,34.0,54,30.11,10.0,SE,6.9,-,N/A,,Overcast,140,2013-01-08 17:57:00
12:57 PM,55.0,37.0,51,30.07,10.0,South,12.7,-,N/A,,Partly Cloudy,170,2013-01-08 18:57:00
2:57 PM,57.0,39.9,53,30.07,10.0,SSW,12.7,-,N/A,,Overcast,200,2013-01-08 20:57:00
3:57 PM,55.0,39.9,57,30.09,10.0,SSW,10.4,-,N/A,,Overcast,210,2013-01-08 21:57:00
4:57 PM,53.1,42.1,66,30.12,10.0,SSW,6.9,-,N/A,,Overcast,200,2013-01-08 22:57:00
5:57 PM,48.0,45.0,89,30.13,4.0,SW,4.6,-,N/A,,Overcast,220,2013-01-08 23:57:00
6:01 PM,46.4,44.6,93,30.11,4.0,West,3.5,-,N/A,,Overcast,270,2013-01-09 00:01:00
6:57 PM,46.0,45.0,96,30.15,5.0,WNW,3.5,-,0.02,,Overcast,290,2013-01-09 00:57:00
7:19 PM,46.4,44.6,93,30.13,2.5,NW,3.5,-,0.02,,Overcast,320,2013-01-09 01:19:00
7:30 PM,46.4,44.6,93,30.13,2.0,North,3.5,-,0.05,,Overcast,10,2013-01-09 01:30:00
8:00 PM,46.4,44.6,93,30.14,3.0,Calm,Calm,-,N/A,,Overcast,0,2013-01-09 02:00:00
8:11 PM,46.4,44.6,93,30.14,2.5,NNE,3.5,-,N/A,,Overcast,20,2013-01-09 02:11:00
8:57 PM,46.0,45.0,96,30.16,2.5,NE,3.5,-,N/A,,Overcast,40,2013-01-09 02:57:00
9:15 PM,46.4,44.6,93,30.15,3.0,NE,3.5,-,N/A,,Overcast,40,2013-01-09 03:15:00
9:57 PM,46.0,45.0,96,30.17,2.5,NW,4.6,-,0.01,,Overcast,310,2013-01-09 03:57:00
10:07 PM,46.4,44.6,93,30.17,2.5,NW,5.8,-,N/A,,Overcast,310,2013-01-09 04:07:00
10:22 PM,46.4,44.6,93,30.18,2.0,NW,8.1,-,N/A,,Overcast,320,2013-01-09 04:22:00
10:39 PM,46.4,44.6,93,30.19,3.0,North,3.5,-,N/A,,Overcast,10,2013-01-09 04:39:00
10:48 PM,46.4,44.6,93,30.19,3.0,NNE,3.5,-,N/A,,Overcast,20,2013-01-09 04:48:00
11:57 PM,46.9,46.0,97,30.23,4.0,Calm,Calm,-,0.01,,Overcast,0,2013-01-09 05:57:00